createdAt,value
2018-05-16T00:00:58.985Z,11.40
2018-05-16T00:03:25.130Z,11.40
2018-05-16T00:05:51.224Z,11.40
2018-05-16T00:08:17.343Z,11.40
2018-05-16T00:10:44.177Z,11.30
2018-05-16T00:13:10.390Z,11.30
2018-05-16T00:15:36.487Z,11.20
2018-05-16T00:18:02.656Z,11.20
2018-05-16T00:20:28.770Z,11.10
2018-05-16T00:22:54.893Z,11.10
2018-05-16T00:25:21.739Z,11.10
2018-05-16T00:27:47.842Z,11.10
2018-05-16T00:30:13.955Z,11.10
2018-05-16T00:32:40.081Z,11.10
2018-05-16T00:35:06.191Z,11.10
2018-05-16T00:37:33.058Z,11.10
2018-05-16T00:39:59.914Z,11.10
2018-05-16T00:42:26.018Z,11.10
2018-05-16T00:44:52.117Z,11.10
2018-05-16T00:47:18.277Z,11.10
2018-05-16T00:49:44.421Z,11.10
2018-05-16T00:52:10.529Z,11.10
2018-05-16T00:54:36.625Z,11.10
2018-05-16T00:57:02.742Z,11.10
2018-05-16T00:59:29.697Z,11.10
2018-05-16T01:01:55.826Z,11.10
2018-05-16T01:04:21.926Z,11.10
2018-05-16T01:06:48.044Z,11.10
2018-05-16T01:09:14.933Z,11.10
2018-05-16T01:11:41.053Z,11.10
2018-05-16T01:14:07.208Z,11.10
2018-05-16T01:16:33.329Z,11.10
2018-05-16T01:19:00.157Z,11.10
2018-05-16T01:21:26.262Z,11.10
2018-05-16T01:23:52.405Z,11.10
2018-05-16T01:26:18.509Z,11.10
2018-05-16T01:28:44.655Z,11.00
2018-05-16T01:31:10.722Z,11.00
2018-05-16T01:33:36.803Z,11.00
2018-05-16T01:36:03.645Z,11.00
2018-05-16T01:38:29.714Z,11.00
2018-05-16T01:40:55.818Z,11.00
2018-05-16T01:43:21.895Z,11.00
2018-05-16T01:45:47.962Z,11.00
2018-05-16T01:48:14.104Z,11.00
2018-05-16T01:50:40.175Z,11.00
2018-05-16T01:53:06.283Z,11.10
2018-05-16T01:55:32.430Z,11.00
2018-05-16T01:57:58.524Z,11.00
2018-05-16T02:00:24.617Z,11.00
2018-05-16T02:02:50.710Z,11.00
2018-05-16T02:05:16.846Z,11.00
2018-05-16T02:07:42.931Z,11.00
2018-05-16T02:10:09.025Z,11.00
2018-05-16T02:12:35.152Z,10.90
2018-05-16T02:15:01.275Z,10.90
2018-05-16T02:17:28.093Z,10.90
2018-05-16T02:19:54.255Z,10.90
2018-05-16T02:22:21.103Z,10.90
2018-05-16T02:24:47.289Z,10.90
2018-05-16T02:27:13.395Z,10.90
2018-05-16T02:29:40.268Z,10.90
2018-05-16T02:32:06.349Z,10.90
2018-05-16T02:34:32.483Z,10.90
2018-05-16T02:36:58.586Z,10.90
2018-05-16T02:39:24.699Z,10.90
2018-05-16T02:41:51.560Z,10.90
2018-05-16T02:44:17.638Z,10.90
2018-05-16T02:46:43.754Z,11.00
2018-05-16T02:49:09.875Z,11.00
2018-05-16T02:51:36.794Z,11.00
2018-05-16T02:54:02.911Z,10.90
2018-05-16T02:56:28.995Z,10.90
2018-05-16T02:58:55.100Z,10.90
2018-05-16T03:01:21.215Z,10.90
2018-05-16T03:03:47.325Z,10.90
2018-05-16T03:06:14.231Z,11.00
2018-05-16T03:08:40.311Z,11.00
2018-05-16T03:11:06.408Z,11.00
2018-05-16T03:13:32.491Z,11.10
2018-05-16T03:15:59.340Z,11.10
2018-05-16T03:18:25.438Z,11.10
2018-05-16T03:20:51.542Z,11.10
2018-05-16T03:23:17.634Z,11.10
2018-05-16T03:25:43.718Z,11.10
2018-05-16T03:28:09.803Z,11.10
2018-05-16T03:30:35.892Z,11.10
2018-05-16T03:33:02.015Z,11.10
2018-05-16T03:35:28.855Z,11.00
2018-05-16T03:37:54.931Z,11.00
2018-05-16T03:40:21.067Z,11.00
2018-05-16T03:42:47.174Z,11.00
2018-05-16T03:45:13.238Z,11.00
2018-05-16T03:47:40.074Z,11.10
2018-05-16T03:50:06.191Z,11.10
2018-05-16T03:52:32.271Z,11.10
2018-05-16T03:54:59.083Z,11.10
2018-05-16T03:57:37.691Z,11.10
2018-05-16T04:00:16.217Z,11.10
2018-05-16T04:02:54.684Z,11.10
2018-05-16T04:05:20.807Z,11.10
2018-05-16T04:07:46.918Z,11.10
2018-05-16T04:10:13.019Z,11.10
2018-05-16T04:12:39.892Z,11.10
2018-05-16T04:15:05.986Z,11.10
2018-05-16T04:17:32.067Z,11.10
2018-05-16T04:19:58.910Z,11.10
2018-05-16T04:22:25.750Z,11.10
2018-05-16T04:24:51.819Z,11.00
2018-05-16T04:27:17.899Z,11.10
2018-05-16T04:29:44.012Z,11.10
2018-05-16T04:32:10.075Z,11.20
2018-05-16T04:34:36.146Z,11.20
2018-05-16T04:37:02.247Z,11.20
2018-05-16T04:39:28.341Z,11.20
2018-05-16T04:41:55.177Z,11.20
2018-05-16T04:44:22.065Z,11.30
2018-05-16T04:46:48.139Z,11.30
2018-05-16T04:49:14.237Z,11.30
2018-05-16T04:51:40.315Z,11.20
2018-05-16T04:54:06.427Z,11.30
2018-05-16T04:56:32.523Z,11.30
2018-05-16T04:58:58.714Z,11.30
2018-05-16T05:01:24.782Z,11.40
2018-05-16T05:03:50.875Z,11.40
2018-05-16T05:06:17.026Z,11.40
2018-05-16T05:08:43.107Z,11.40
2018-05-16T05:11:09.220Z,11.50
2018-05-16T05:13:35.290Z,11.50
2018-05-16T05:16:01.367Z,11.50
2018-05-16T05:18:27.573Z,11.60
2018-05-16T05:20:54.342Z,11.70
2018-05-16T05:23:21.195Z,11.70
2018-05-16T05:25:47.999Z,11.80
2018-05-16T05:28:14.092Z,11.80
2018-05-16T05:30:41.121Z,12.00
2018-05-16T05:33:07.203Z,12.00
2018-05-16T05:35:33.343Z,12.00
2018-05-16T05:37:59.434Z,12.10
2018-05-16T05:40:25.530Z,12.10
2018-05-16T05:42:52.367Z,12.00
2018-05-16T05:45:18.472Z,11.90
2018-05-16T05:47:44.650Z,11.90
2018-05-16T05:50:10.756Z,11.80
2018-05-16T05:52:37.575Z,11.70
2018-05-16T05:55:03.669Z,11.70
2018-05-16T05:57:29.774Z,11.70
2018-05-16T05:59:55.845Z,11.80
2018-05-16T06:02:22.683Z,11.80
2018-05-16T06:04:48.751Z,11.80
2018-05-16T06:07:14.847Z,11.80
2018-05-16T06:09:40.930Z,11.80
2018-05-16T06:12:07.056Z,11.90
2018-05-16T06:14:33.142Z,12.00
2018-05-16T06:16:59.255Z,12.20
2018-05-16T06:19:25.423Z,12.30
2018-05-16T06:21:51.448Z,12.40
2018-05-16T06:24:17.562Z,12.50
2018-05-16T06:26:43.643Z,12.70
2018-05-16T06:29:09.753Z,12.80
2018-05-16T06:31:35.868Z,12.90
2018-05-16T06:34:01.950Z,13.00
2018-05-16T06:36:28.055Z,12.90
2018-05-16T06:38:54.124Z,13.00
2018-05-16T06:41:20.206Z,13.10
2018-05-16T06:43:46.317Z,13.20
2018-05-16T06:46:12.426Z,13.10
2018-05-16T06:48:39.285Z,13.00
2018-05-16T06:51:05.382Z,12.90
2018-05-16T06:53:31.562Z,13.00
2018-05-16T06:55:57.646Z,13.20
2018-05-16T06:58:24.490Z,13.40
2018-05-16T07:00:51.306Z,13.50
2018-05-16T07:03:17.406Z,13.50
2018-05-16T07:05:43.489Z,13.60
2018-05-16T07:08:09.594Z,13.60
2018-05-16T07:10:35.690Z,13.60
2018-05-16T07:13:01.827Z,13.60
2018-05-16T07:15:27.915Z,13.50
2018-05-16T07:17:54.735Z,13.80
2018-05-16T07:20:20.835Z,13.80
2018-05-16T07:22:47.000Z,14.00
2018-05-16T07:25:13.057Z,14.10
2018-05-16T07:27:39.903Z,14.10
2018-05-16T07:30:06.740Z,14.20
2018-05-16T07:32:32.942Z,14.20
2018-05-16T07:34:58.942Z,14.10
2018-05-16T07:37:25.786Z,13.90
2018-05-16T07:39:52.631Z,14.00
2018-05-16T07:42:18.710Z,14.00
2018-05-16T07:44:44.787Z,14.10
2018-05-16T07:47:10.991Z,14.10
2018-05-16T07:49:36.998Z,14.10
2018-05-16T07:52:03.833Z,14.20
2018-05-16T07:54:29.942Z,14.20
2018-05-16T07:56:56.046Z,14.20
2018-05-16T07:59:22.123Z,14.10
2018-05-16T08:01:48.254Z,14.30
2018-05-16T08:04:14.355Z,14.40
2018-05-16T08:06:41.202Z,14.60
2018-05-16T08:09:08.010Z,14.70
2018-05-16T08:11:34.095Z,14.70
2018-05-16T08:14:00.975Z,14.90
2018-05-16T08:16:27.046Z,14.80
2018-05-16T08:18:53.127Z,14.80
2018-05-16T08:21:19.974Z,14.10
2018-05-16T08:23:46.786Z,13.90
2018-05-16T08:26:12.895Z,13.90
2018-05-16T08:28:38.987Z,13.90
2018-05-16T08:31:05.184Z,13.70
2018-05-16T08:33:31.213Z,13.60
2018-05-16T08:35:57.321Z,13.70
2018-05-16T08:38:24.142Z,13.60
2018-05-16T08:40:50.259Z,13.60
2018-05-16T08:43:16.346Z,13.60
2018-05-16T08:45:43.195Z,13.90
2018-05-16T08:48:09.274Z,13.80
2018-05-16T08:50:35.391Z,14.10
2018-05-16T08:53:02.218Z,14.40
2018-05-16T08:55:28.336Z,14.40
2018-05-16T08:57:55.161Z,14.80
2018-05-16T09:00:21.263Z,14.80
2018-05-16T09:02:48.078Z,15.50
2018-05-16T09:05:14.188Z,15.40
2018-05-16T09:07:40.331Z,15.80
2018-05-16T09:10:06.429Z,15.70
2018-05-16T09:12:32.515Z,15.90
2018-05-16T09:14:58.619Z,16.20
2018-05-16T09:17:25.493Z,16.20
2018-05-16T09:19:51.558Z,16.20
2018-05-16T09:22:17.662Z,16.00
2018-05-16T09:24:43.738Z,15.90
2018-05-16T09:27:09.851Z,16.60
2018-05-16T09:29:35.921Z,17.30
2018-05-16T09:32:02.028Z,17.30
2018-05-16T09:34:28.130Z,17.40
2018-05-16T09:36:54.231Z,17.10
2018-05-16T09:39:20.332Z,17.20
2018-05-16T09:41:46.404Z,17.40
2018-05-16T09:44:12.525Z,17.50
2018-05-16T09:46:38.617Z,17.60
2018-05-16T09:49:04.710Z,17.30
2018-05-16T09:51:30.876Z,17.00
2018-05-16T09:53:57.656Z,17.00
2018-05-16T09:56:24.473Z,17.30
2018-05-16T09:58:50.670Z,17.20
2018-05-16T10:01:16.748Z,17.60
2018-05-16T10:03:42.822Z,17.90
2018-05-16T10:06:09.035Z,18.10
2018-05-16T10:08:35.123Z,17.90
2018-05-16T10:11:01.938Z,17.90
2018-05-16T10:13:28.055Z,17.90
2018-05-16T10:15:54.144Z,18.10
2018-05-16T10:18:20.994Z,18.90
2018-05-16T10:20:47.826Z,18.80
2018-05-16T10:23:13.922Z,18.80
2018-05-16T10:25:39.995Z,18.90
2018-05-16T10:28:06.070Z,18.40
2018-05-16T10:30:32.890Z,18.00
2018-05-16T10:32:58.990Z,18.00
2018-05-16T10:35:25.109Z,17.50
2018-05-16T10:37:51.998Z,17.00
2018-05-16T10:40:18.091Z,17.00
2018-05-16T10:42:44.279Z,17.00
2018-05-16T10:45:10.378Z,17.40
2018-05-16T10:47:37.182Z,18.20
2018-05-16T10:50:03.274Z,18.20
2018-05-16T10:52:30.074Z,19.10
2018-05-16T10:54:56.206Z,19.10
2018-05-16T10:57:22.276Z,19.60
2018-05-16T10:59:48.347Z,19.80
2018-05-16T11:02:15.331Z,19.20
2018-05-16T11:04:41.402Z,19.20
2018-05-16T11:07:07.487Z,18.60
2018-05-16T11:09:34.334Z,17.90
2018-05-16T11:12:01.308Z,17.60
2018-05-16T11:14:27.557Z,17.60
2018-05-16T11:16:53.732Z,17.50
2018-05-16T11:19:19.900Z,17.60
2018-05-16T11:21:46.138Z,17.80
2018-05-16T11:24:12.351Z,18.00
2018-05-16T11:26:39.377Z,18.30
2018-05-16T11:29:05.519Z,18.30
2018-05-16T11:31:31.578Z,18.30
2018-05-16T11:33:57.679Z,18.50
2018-05-16T11:36:24.533Z,19.00
2018-05-16T11:38:50.615Z,19.00
2018-05-16T11:41:16.726Z,19.40
2018-05-16T11:43:42.882Z,19.40
2018-05-16T11:46:09.734Z,19.80
2018-05-16T11:48:35.803Z,19.70
2018-05-16T11:51:01.911Z,19.70
2018-05-16T11:53:28.049Z,19.10
2018-05-16T11:55:54.146Z,18.90
2018-05-16T11:58:20.975Z,18.90
2018-05-16T12:00:47.069Z,18.90
2018-05-16T12:03:13.250Z,19.00
2018-05-16T12:05:39.326Z,19.20
2018-05-16T12:08:06.200Z,17.20
2018-05-16T12:10:32.337Z,17.20
2018-05-16T12:12:59.362Z,16.40
2018-05-16T12:15:25.478Z,15.70
2018-05-16T12:17:52.427Z,15.00
2018-05-16T12:20:18.578Z,14.90
2018-05-16T12:22:45.431Z,14.50
2018-05-16T12:25:11.559Z,14.50
2018-05-16T12:27:37.638Z,14.30
2018-05-16T12:30:04.544Z,14.10
2018-05-16T12:32:30.649Z,14.10
2018-05-16T12:34:57.458Z,14.00
2018-05-16T12:37:23.558Z,14.00
2018-05-16T12:39:49.671Z,14.10
2018-05-16T12:42:15.839Z,14.20
2018-05-16T12:44:41.960Z,14.40
2018-05-16T12:47:08.787Z,14.70
2018-05-16T12:49:34.894Z,14.70
2018-05-16T12:52:00.979Z,14.90
2018-05-16T12:54:27.895Z,15.30
2018-05-16T12:56:53.976Z,15.20
2018-05-16T12:59:20.818Z,16.10
2018-05-16T13:01:46.895Z,16.10
2018-05-16T13:04:13.007Z,16.80
2018-05-16T13:06:39.826Z,18.40
2018-05-16T13:09:05.938Z,18.40
2018-05-16T13:11:32.079Z,19.00
2018-05-16T13:13:58.163Z,18.70
2018-05-16T13:16:24.247Z,18.90
2018-05-16T13:18:50.340Z,18.70
2018-05-16T13:21:16.458Z,18.60
2018-05-16T13:23:42.547Z,18.80
2018-05-16T13:26:08.627Z,18.70
2018-05-16T13:28:34.734Z,18.90
2018-05-16T13:31:00.822Z,18.90
2018-05-16T13:33:26.942Z,18.30
2018-05-16T13:35:53.030Z,18.20
2018-05-16T13:38:19.141Z,18.10
2018-05-16T13:40:45.351Z,18.10
2018-05-16T13:43:11.460Z,18.00
2018-05-16T13:45:37.597Z,18.00
2018-05-16T13:48:03.703Z,18.20
2018-05-16T13:50:30.523Z,18.10
2018-05-16T13:52:56.615Z,18.10
2018-05-16T13:55:23.432Z,18.70
2018-05-16T13:57:49.502Z,18.70
2018-05-16T14:00:16.379Z,19.70
2018-05-16T14:02:43.236Z,19.50
2018-05-16T14:05:09.342Z,19.50
2018-05-16T14:07:35.438Z,19.40
2018-05-16T14:10:01.526Z,20.00
2018-05-16T14:12:27.619Z,19.80
2018-05-16T14:14:53.729Z,19.60
2018-05-16T14:17:19.798Z,19.70
2018-05-16T14:19:45.907Z,19.80
2018-05-16T14:22:11.978Z,19.90
2018-05-16T14:24:38.054Z,20.30
2018-05-16T14:27:04.923Z,20.50
2018-05-16T14:29:30.986Z,20.50
2018-05-16T14:31:57.051Z,20.70
2018-05-16T14:34:23.162Z,19.90
2018-05-16T14:36:49.234Z,19.90
2018-05-16T14:39:15.331Z,20.10
2018-05-16T14:41:41.423Z,19.80
2018-05-16T14:44:07.511Z,19.70
2018-05-16T14:46:33.601Z,19.50
2018-05-16T14:48:59.709Z,19.30
2018-05-16T14:51:25.794Z,18.70
2018-05-16T14:53:52.658Z,18.10
2018-05-16T14:56:18.774Z,18.00
2018-05-16T14:58:44.863Z,17.60
2018-05-16T15:01:11.021Z,17.10
2018-05-16T15:03:37.131Z,17.00
2018-05-16T15:06:04.019Z,16.70
2018-05-16T15:08:30.119Z,16.70
2018-05-16T15:10:56.274Z,16.50
2018-05-16T15:13:22.382Z,16.30
2018-05-16T15:15:48.560Z,16.20
2018-05-16T15:18:14.587Z,16.20
2018-05-16T15:20:40.719Z,16.40
2018-05-16T15:23:06.819Z,16.70
2018-05-16T15:25:32.939Z,17.00
2018-05-16T15:27:59.024Z,17.50
2018-05-16T15:30:25.202Z,17.90
2018-05-16T15:32:51.294Z,18.20
2018-05-16T15:35:17.469Z,18.90
2018-05-16T15:37:43.568Z,19.60
2018-05-16T15:40:10.501Z,20.20
2018-05-16T15:42:36.601Z,20.20
2018-05-16T15:45:02.707Z,20.30
2018-05-16T15:47:28.783Z,20.20
2018-05-16T15:49:54.878Z,20.60
2018-05-16T15:52:21.694Z,22.30
2018-05-16T15:54:47.771Z,22.30
2018-05-16T15:57:14.599Z,23.40
2018-05-16T15:59:40.835Z,23.30
2018-05-16T16:02:06.911Z,24.00
2018-05-16T16:04:33.110Z,23.90
2018-05-16T16:06:59.199Z,23.80
2018-05-16T16:09:25.352Z,24.20
2018-05-16T16:11:51.462Z,23.20
2018-05-16T16:14:17.637Z,22.80
2018-05-16T16:16:43.754Z,22.40
2018-05-16T16:19:09.894Z,21.90
2018-05-16T16:21:36.025Z,21.50
2018-05-16T16:24:02.158Z,21.50
2018-05-16T16:26:28.307Z,21.60
2018-05-16T16:28:54.463Z,21.50
2018-05-16T16:31:20.593Z,21.70
2018-05-16T16:33:46.726Z,21.20
2018-05-16T16:36:12.802Z,20.70
2018-05-16T16:38:39.018Z,20.70
2018-05-16T16:41:05.109Z,20.50
2018-05-16T16:43:31.854Z,20.00
2018-05-16T16:45:57.979Z,19.60
2018-05-16T16:48:24.189Z,19.40
2018-05-16T16:50:50.319Z,19.30
2018-05-16T16:53:16.407Z,19.10
2018-05-16T16:55:42.484Z,18.90
2018-05-16T16:58:08.624Z,18.80
2018-05-16T17:00:34.694Z,18.80
2018-05-16T17:03:00.787Z,18.80
2018-05-16T17:05:27.665Z,19.00
2018-05-16T17:07:53.748Z,19.00
2018-05-16T17:10:19.827Z,19.40
2018-05-16T17:12:45.898Z,19.90
2018-05-16T17:15:12.011Z,20.30
2018-05-16T17:17:38.080Z,20.70
2018-05-16T17:20:04.239Z,20.90
2018-05-16T17:22:30.310Z,21.00
2018-05-16T17:24:57.185Z,20.30
2018-05-16T17:27:23.265Z,20.20
2018-05-16T17:29:49.346Z,19.80
2018-05-16T17:32:15.479Z,19.60
2018-05-16T17:34:42.296Z,19.50
2018-05-16T17:37:09.136Z,19.40
2018-05-16T17:39:35.207Z,19.40
2018-05-16T17:42:01.280Z,19.40
2018-05-16T17:44:27.354Z,19.30
2018-05-16T17:46:53.410Z,19.60
2018-05-16T17:49:19.481Z,20.40
2018-05-16T17:51:45.573Z,21.30
2018-05-16T17:54:11.660Z,22.00
2018-05-16T17:56:37.755Z,22.00
2018-05-16T17:59:03.829Z,21.20
2018-05-16T18:01:29.898Z,20.80
2018-05-16T18:03:55.982Z,20.50
2018-05-16T18:06:22.821Z,19.20
2018-05-16T18:08:48.890Z,19.20
2018-05-16T18:11:14.970Z,19.00
2018-05-16T18:14:02.224Z,18.70
2018-05-16T18:16:40.637Z,18.40
2018-05-16T18:19:06.711Z,18.10
2018-05-16T18:21:32.791Z,17.80
2018-05-16T18:23:58.906Z,17.60
2018-05-16T18:26:25.730Z,17.30
2018-05-16T18:28:51.988Z,17.20
2018-05-16T18:31:18.048Z,17.00
2018-05-16T18:33:44.122Z,16.80
2018-05-16T18:36:10.194Z,16.50
2018-05-16T18:38:37.015Z,16.20
2018-05-16T18:41:03.357Z,16.20
2018-05-16T18:43:29.454Z,16.00
2018-05-16T18:45:55.518Z,15.80
2018-05-16T18:48:21.630Z,15.60
2018-05-16T18:50:47.858Z,15.30
2018-05-16T18:53:14.688Z,14.90
2018-05-16T18:55:40.859Z,14.90
2018-05-16T18:58:07.734Z,14.60
2018-05-16T19:00:33.871Z,14.60
2018-05-16T19:03:00.255Z,14.50
2018-05-16T19:05:26.480Z,14.40
2018-05-16T19:07:52.553Z,14.20
2018-05-16T19:10:18.727Z,14.10
2018-05-16T19:12:44.862Z,14.10
2018-05-16T19:15:11.027Z,14.10
2018-05-16T19:17:37.099Z,14.00
2018-05-16T19:20:03.207Z,13.90
2018-05-16T19:22:29.275Z,13.90
2018-05-16T19:24:55.467Z,13.80
2018-05-16T19:27:21.568Z,13.70
2018-05-16T19:29:48.498Z,13.70
2018-05-16T19:32:14.702Z,13.60
2018-05-16T19:34:40.847Z,13.50
2018-05-16T19:37:06.995Z,13.50
2018-05-16T19:39:33.111Z,13.50
2018-05-16T19:41:59.265Z,13.40
2018-05-16T19:44:25.339Z,13.30
2018-05-16T19:46:51.591Z,13.20
2018-05-16T19:49:17.748Z,13.10
2018-05-16T19:51:44.636Z,12.90
2018-05-16T19:54:10.876Z,12.90
2018-05-16T19:56:37.080Z,12.80
2018-05-16T19:59:03.960Z,12.60
2018-05-16T20:01:30.174Z,12.60
2018-05-16T20:03:57.042Z,12.60
2018-05-16T20:06:23.206Z,12.60
2018-05-16T20:08:49.398Z,12.60
2018-05-16T20:11:16.313Z,12.50
2018-05-16T20:13:42.494Z,12.50
2018-05-16T20:16:08.639Z,12.50
2018-05-16T20:18:35.551Z,12.50
2018-05-16T20:21:01.738Z,12.40
2018-05-16T20:23:28.615Z,12.50
2018-05-16T20:25:54.716Z,12.40
2018-05-16T20:28:20.934Z,12.50
2018-05-16T20:30:47.019Z,12.40
2018-05-16T20:33:13.144Z,12.50
2018-05-16T20:35:39.335Z,12.60
2018-05-16T20:38:05.509Z,12.50
2018-05-16T20:40:31.716Z,12.50
2018-05-16T20:42:57.787Z,12.60
2018-05-16T20:45:24.235Z,12.70
2018-05-16T20:47:50.991Z,12.80
2018-05-16T20:50:17.099Z,12.80
2018-05-16T20:52:43.511Z,12.70
2018-05-16T20:55:09.614Z,12.70
2018-05-16T20:57:35.690Z,12.70
2018-05-16T21:00:01.798Z,12.60
2018-05-16T21:02:28.626Z,12.60
2018-05-16T21:04:55.567Z,12.60
2018-05-16T21:07:21.643Z,12.60
2018-05-16T21:09:49.880Z,12.60
2018-05-16T21:12:16.027Z,12.60
2018-05-16T21:14:42.101Z,12.60
2018-05-16T21:17:08.190Z,12.60
2018-05-16T21:19:34.287Z,12.70
2018-05-16T21:22:00.362Z,12.80
2018-05-16T21:24:26.474Z,12.70
2018-05-16T21:26:53.303Z,12.80
2018-05-16T21:29:19.399Z,12.70
2018-05-16T21:31:45.662Z,12.80
2018-05-16T21:34:11.778Z,12.70
2018-05-16T21:36:37.929Z,12.70
2018-05-16T21:39:04.018Z,12.70
2018-05-16T21:41:30.902Z,12.60
2018-05-16T21:43:56.992Z,12.60
2018-05-16T21:46:23.107Z,12.70
2018-05-16T21:48:49.221Z,12.70
2018-05-16T21:51:15.442Z,12.70
2018-05-16T21:53:42.251Z,12.70
2018-05-16T21:56:08.353Z,12.70
2018-05-16T21:58:34.509Z,12.60
2018-05-16T22:01:00.652Z,12.60
2018-05-16T22:03:26.752Z,12.60
2018-05-16T22:05:53.595Z,12.60
2018-05-16T22:08:20.453Z,12.60
2018-05-16T22:10:47.270Z,12.50
2018-05-16T22:13:13.478Z,12.50
2018-05-16T22:15:39.674Z,12.50
2018-05-16T22:18:05.746Z,12.50
2018-05-16T22:20:31.823Z,12.60
2018-05-16T22:22:57.930Z,12.60
2018-05-16T22:25:24.012Z,12.60
2018-05-16T22:27:50.099Z,12.70
2018-05-16T22:30:16.200Z,12.60
2018-05-16T22:32:48.367Z,12.60
2018-05-16T22:35:20.650Z,12.60
2018-05-16T22:37:53.698Z,12.40
2018-05-16T22:40:25.983Z,12.40
2018-05-16T22:42:51.986Z,12.40
2018-05-16T22:45:33.086Z,12.30
2018-05-16T22:47:59.938Z,12.20
2018-05-16T22:50:26.014Z,12.20
2018-05-16T22:52:52.142Z,12.10
2018-05-16T22:55:18.282Z,12.10
2018-05-16T22:57:44.378Z,12.10
2018-05-16T23:00:10.456Z,12.00
2018-05-16T23:02:36.561Z,12.10
2018-05-16T23:05:02.655Z,12.10
2018-05-16T23:07:28.754Z,12.20
2018-05-16T23:09:55.574Z,12.10
2018-05-16T23:12:21.642Z,12.10
2018-05-16T23:14:47.743Z,12.20
2018-05-16T23:17:13.822Z,12.20
2018-05-16T23:19:40.661Z,12.20
2018-05-16T23:22:06.739Z,12.20
2018-05-16T23:24:32.838Z,12.20
2018-05-16T23:26:58.912Z,12.20
2018-05-16T23:29:25.010Z,12.10
2018-05-16T23:31:51.074Z,12.10
2018-05-16T23:34:17.189Z,12.20
2018-05-16T23:36:43.263Z,12.20
2018-05-16T23:39:09.386Z,12.20
2018-05-16T23:41:36.229Z,12.40
2018-05-16T23:44:03.104Z,12.40
2018-05-16T23:46:29.202Z,12.40
2018-05-16T23:48:55.292Z,12.40
2018-05-16T23:51:21.410Z,12.40
2018-05-16T23:53:48.299Z,12.30
2018-05-16T23:56:14.395Z,12.30
2018-05-16T23:58:41.238Z,12.30
